sensor_id;sensor_type;location;lat;lon;timestamp;temperature;humidity
44773;DHT22;30492;52.088;5.122;2022-09-03T00:02:14;20.30;85.50
44773;DHT22;30492;52.088;5.122;2022-09-03T00:05:25;20.30;86.00
44773;DHT22;30492;52.088;5.122;2022-09-03T00:08:37;20.30;86.10
44773;DHT22;30492;52.088;5.122;2022-09-03T00:11:51;20.20;85.50
44773;DHT22;30492;52.088;5.122;2022-09-03T00:15:03;20.20;86.00
44773;DHT22;30492;52.088;5.122;2022-09-03T00:18:14;20.20;86.00
44773;DHT22;30492;52.088;5.122;2022-09-03T00:21:23;20.10;86.30
44773;DHT22;30492;52.088;5.122;2022-09-03T00:24:34;20.10;86.20
44773;DHT22;30492;52.088;5.122;2022-09-03T00:27:43;20.00;86.40
44773;DHT22;30492;52.088;5.122;2022-09-03T00:31:04;20.10;86.40
44773;DHT22;30492;52.088;5.122;2022-09-03T00:34:14;20.00;86.50
44773;DHT22;30492;52.088;5.122;2022-09-03T00:37:20;20.00;86.80
44773;DHT22;30492;52.088;5.122;2022-09-03T00:40:39;20.00;86.70
44773;DHT22;30492;52.088;5.122;2022-09-03T00:44:08;19.90;86.90
44773;DHT22;30492;52.088;5.122;2022-09-03T00:47:21;19.80;86.70
44773;DHT22;30492;52.088;5.122;2022-09-03T00:50:41;19.80;87.20
44773;DHT22;30492;52.088;5.122;2022-09-03T00:53:55;19.80;87.20
44773;DHT22;30492;52.088;5.122;2022-09-03T00:57:11;19.70;87.60
44773;DHT22;30492;52.088;5.122;2022-09-03T01:00:20;19.70;87.60
44773;DHT22;30492;52.088;5.122;2022-09-03T01:03:33;19.60;87.80
44773;DHT22;30492;52.088;5.122;2022-09-03T01:06:48;19.60;87.90
44773;DHT22;30492;52.088;5.122;2022-09-03T01:10:03;19.60;87.90
44773;DHT22;30492;52.088;5.122;2022-09-03T01:13:16;19.60;88.00
44773;DHT22;30492;52.088;5.122;2022-09-03T01:16:29;19.50;88.80
44773;DHT22;30492;52.088;5.122;2022-09-03T01:20:08;19.40;88.50
44773;DHT22;30492;52.088;5.122;2022-09-03T01:23:40;19.40;89.00
44773;DHT22;30492;52.088;5.122;2022-09-03T01:27:03;19.30;89.20
44773;DHT22;30492;52.088;5.122;2022-09-03T01:30:17;19.40;89.50
44773;DHT22;30492;52.088;5.122;2022-09-03T01:33:29;19.40;89.10
44773;DHT22;30492;52.088;5.122;2022-09-03T01:36:43;19.30;89.70
44773;DHT22;30492;52.088;5.122;2022-09-03T01:40:00;19.30;89.40
44773;DHT22;30492;52.088;5.122;2022-09-03T01:43:19;19.20;89.70
44773;DHT22;30492;52.088;5.122;2022-09-03T01:46:28;19.20;89.80
44773;DHT22;30492;52.088;5.122;2022-09-03T01:49:40;19.30;89.90
44773;DHT22;30492;52.088;5.122;2022-09-03T01:52:53;19.30;89.80
44773;DHT22;30492;52.088;5.122;2022-09-03T01:56:11;19.30;90.00
44773;DHT22;30492;52.088;5.122;2022-09-03T01:59:25;19.20;90.00
44773;DHT22;30492;52.088;5.122;2022-09-03T02:02:32;19.20;90.10
44773;DHT22;30492;52.088;5.122;2022-09-03T02:05:38;19.20;90.30
44773;DHT22;30492;52.088;5.122;2022-09-03T02:08:46;19.10;90.10
44773;DHT22;30492;52.088;5.122;2022-09-03T02:11:54;19.20;90.10
44773;DHT22;30492;52.088;5.122;2022-09-03T02:15:05;19.20;90.30
44773;DHT22;30492;52.088;5.122;2022-09-03T02:18:15;19.10;90.20
44773;DHT22;30492;52.088;5.122;2022-09-03T02:21:23;19.10;90.20
44773;DHT22;30492;52.088;5.122;2022-09-03T02:24:28;19.00;90.60
44773;DHT22;30492;52.088;5.122;2022-09-03T02:27:33;19.00;90.50
44773;DHT22;30492;52.088;5.122;2022-09-03T02:30:39;18.90;90.50
44773;DHT22;30492;52.088;5.122;2022-09-03T02:33:46;18.90;90.40
44773;DHT22;30492;52.088;5.122;2022-09-03T02:36:52;18.90;90.60
44773;DHT22;30492;52.088;5.122;2022-09-03T02:39:57;18.90;90.80
44773;DHT22;30492;52.088;5.122;2022-09-03T02:43:05;18.80;90.70
44773;DHT22;30492;52.088;5.122;2022-09-03T02:46:15;18.70;90.90
44773;DHT22;30492;52.088;5.122;2022-09-03T02:49:22;18.70;90.80
44773;DHT22;30492;52.088;5.122;2022-09-03T02:52:28;18.70;90.80
44773;DHT22;30492;52.088;5.122;2022-09-03T02:55:34;18.70;90.80
44773;DHT22;30492;52.088;5.122;2022-09-03T02:58:39;18.70;90.90
44773;DHT22;30492;52.088;5.122;2022-09-03T03:01:44;18.70;91.20
44773;DHT22;30492;52.088;5.122;2022-09-03T03:04:51;18.70;91.10
44773;DHT22;30492;52.088;5.122;2022-09-03T03:07:58;18.70;91.40
44773;DHT22;30492;52.088;5.122;2022-09-03T03:11:05;18.70;91.20
44773;DHT22;30492;52.088;5.122;2022-09-03T03:14:10;18.60;91.30
44773;DHT22;30492;52.088;5.122;2022-09-03T03:17:15;18.60;91.40
44773;DHT22;30492;52.088;5.122;2022-09-03T03:20:21;18.60;91.30
44773;DHT22;30492;52.088;5.122;2022-09-03T03:23:26;18.50;91.30
44773;DHT22;30492;52.088;5.122;2022-09-03T03:26:35;18.40;91.40
44773;DHT22;30492;52.088;5.122;2022-09-03T03:29:40;18.40;91.40
44773;DHT22;30492;52.088;5.122;2022-09-03T03:32:45;18.40;91.70
44773;DHT22;30492;52.088;5.122;2022-09-03T03:35:51;18.40;92.00
44773;DHT22;30492;52.088;5.122;2022-09-03T03:38:58;18.30;91.80
44773;DHT22;30492;52.088;5.122;2022-09-03T03:42:04;18.40;91.90
44773;DHT22;30492;52.088;5.122;2022-09-03T03:45:09;18.40;92.10
44773;DHT22;30492;52.088;5.122;2022-09-03T03:48:15;18.30;92.00
44773;DHT22;30492;52.088;5.122;2022-09-03T03:51:23;18.20;92.20
44773;DHT22;30492;52.088;5.122;2022-09-03T03:54:28;18.20;92.20
44773;DHT22;30492;52.088;5.122;2022-09-03T03:57:33;18.20;92.20
44773;DHT22;30492;52.088;5.122;2022-09-03T04:00:39;18.20;92.30
44773;DHT22;30492;52.088;5.122;2022-09-03T04:03:45;18.10;92.40
44773;DHT22;30492;52.088;5.122;2022-09-03T04:06:51;18.10;92.30
44773;DHT22;30492;52.088;5.122;2022-09-03T04:09:56;18.20;92.30
44773;DHT22;30492;52.088;5.122;2022-09-03T04:13:01;18.10;92.40
44773;DHT22;30492;52.088;5.122;2022-09-03T04:16:07;18.10;92.50
44773;DHT22;30492;52.088;5.122;2022-09-03T04:19:13;18.10;92.40
44773;DHT22;30492;52.088;5.122;2022-09-03T04:22:19;18.10;92.40
44773;DHT22;30492;52.088;5.122;2022-09-03T04:25:24;18.10;92.50
44773;DHT22;30492;52.088;5.122;2022-09-03T04:28:29;18.00;92.50
44773;DHT22;30492;52.088;5.122;2022-09-03T04:31:36;18.10;92.60
44773;DHT22;30492;52.088;5.122;2022-09-03T04:34:41;18.00;92.80
44773;DHT22;30492;52.088;5.122;2022-09-03T04:37:48;18.10;92.90
44773;DHT22;30492;52.088;5.122;2022-09-03T04:40:53;18.00;92.80
44773;DHT22;30492;52.088;5.122;2022-09-03T04:43:59;18.00;93.00
44773;DHT22;30492;52.088;5.122;2022-09-03T04:47:04;18.00;92.90
44773;DHT22;30492;52.088;5.122;2022-09-03T04:50:09;18.00;92.90
44773;DHT22;30492;52.088;5.122;2022-09-03T04:53:16;18.00;93.00
44773;DHT22;30492;52.088;5.122;2022-09-03T04:56:22;18.00;93.00
44773;DHT22;30492;52.088;5.122;2022-09-03T04:59:28;18.00;93.00
44773;DHT22;30492;52.088;5.122;2022-09-03T05:02:33;18.00;93.10
44773;DHT22;30492;52.088;5.122;2022-09-03T05:05:38;18.00;93.00
44773;DHT22;30492;52.088;5.122;2022-09-03T05:08:40;18.00;93.10
44773;DHT22;30492;52.088;5.122;2022-09-03T05:11:46;17.90;93.30
44773;DHT22;30492;52.088;5.122;2022-09-03T05:14:51;17.90;93.20
44773;DHT22;30492;52.088;5.122;2022-09-03T05:17:57;17.90;93.30
44773;DHT22;30492;52.088;5.122;2022-09-03T05:21:05;17.80;93.40
44773;DHT22;30492;52.088;5.122;2022-09-03T05:24:11;17.90;93.40
44773;DHT22;30492;52.088;5.122;2022-09-03T05:27:17;17.80;93.40
44773;DHT22;30492;52.088;5.122;2022-09-03T05:30:22;17.80;93.50
44773;DHT22;30492;52.088;5.122;2022-09-03T05:33:28;17.80;93.60
44773;DHT22;30492;52.088;5.122;2022-09-03T05:36:34;17.80;93.60
44773;DHT22;30492;52.088;5.122;2022-09-03T05:39:41;17.80;93.70
44773;DHT22;30492;52.088;5.122;2022-09-03T05:42:46;17.80;93.70
44773;DHT22;30492;52.088;5.122;2022-09-03T05:45:55;17.80;93.70
44773;DHT22;30492;52.088;5.122;2022-09-03T05:49:02;17.80;94.00
44773;DHT22;30492;52.088;5.122;2022-09-03T05:52:07;17.70;94.00
44773;DHT22;30492;52.088;5.122;2022-09-03T05:55:14;17.70;94.10
44773;DHT22;30492;52.088;5.122;2022-09-03T05:58:19;17.80;94.10
44773;DHT22;30492;52.088;5.122;2022-09-03T06:01:25;17.80;94.10
44773;DHT22;30492;52.088;5.122;2022-09-03T06:04:31;17.80;94.10
44773;DHT22;30492;52.088;5.122;2022-09-03T06:07:36;17.80;94.10
44773;DHT22;30492;52.088;5.122;2022-09-03T06:10:42;17.80;94.10
44773;DHT22;30492;52.088;5.122;2022-09-03T06:13:47;17.70;94.40
44773;DHT22;30492;52.088;5.122;2022-09-03T06:16:52;17.70;94.50
44773;DHT22;30492;52.088;5.122;2022-09-03T06:19:59;17.70;94.70
44773;DHT22;30492;52.088;5.122;2022-09-03T06:23:04;17.80;94.90
44773;DHT22;30492;52.088;5.122;2022-09-03T06:26:12;17.90;94.80
44773;DHT22;30492;52.088;5.122;2022-09-03T06:29:17;17.90;94.80
44773;DHT22;30492;52.088;5.122;2022-09-03T06:32:23;18.00;94.80
44773;DHT22;30492;52.088;5.122;2022-09-03T06:35:28;18.20;94.70
44773;DHT22;30492;52.088;5.122;2022-09-03T06:38:34;18.30;94.50
44773;DHT22;30492;52.088;5.122;2022-09-03T06:41:41;18.50;94.30
44773;DHT22;30492;52.088;5.122;2022-09-03T06:44:48;18.60;94.10
44773;DHT22;30492;52.088;5.122;2022-09-03T06:47:53;18.70;94.10
44773;DHT22;30492;52.088;5.122;2022-09-03T06:51:00;18.80;93.90
44773;DHT22;30492;52.088;5.122;2022-09-03T06:54:07;18.90;93.70
44773;DHT22;30492;52.088;5.122;2022-09-03T06:57:14;19.10;93.60
44773;DHT22;30492;52.088;5.122;2022-09-03T07:00:19;19.20;93.40
44773;DHT22;30492;52.088;5.122;2022-09-03T07:03:26;19.30;93.30
44773;DHT22;30492;52.088;5.122;2022-09-03T07:06:33;19.40;93.00
44773;DHT22;30492;52.088;5.122;2022-09-03T07:09:41;19.50;93.00
44773;DHT22;30492;52.088;5.122;2022-09-03T07:12:47;19.70;92.80
44773;DHT22;30492;52.088;5.122;2022-09-03T07:15:59;19.90;92.90
44773;DHT22;30492;52.088;5.122;2022-09-03T07:19:05;20.00;92.30
44773;DHT22;30492;52.088;5.122;2022-09-03T07:22:10;20.20;92.00
44773;DHT22;30492;52.088;5.122;2022-09-03T07:25:16;20.30;91.80
44773;DHT22;30492;52.088;5.122;2022-09-03T07:28:23;20.50;91.70
44773;DHT22;30492;52.088;5.122;2022-09-03T07:31:30;20.60;91.40
44773;DHT22;30492;52.088;5.122;2022-09-03T07:34:36;20.80;91.00
44773;DHT22;30492;52.088;5.122;2022-09-03T07:37:45;20.90;90.70
44773;DHT22;30492;52.088;5.122;2022-09-03T07:40:56;21.10;90.60
44773;DHT22;30492;52.088;5.122;2022-09-03T07:44:04;21.20;90.20
44773;DHT22;30492;52.088;5.122;2022-09-03T07:47:09;21.30;89.90
44773;DHT22;30492;52.088;5.122;2022-09-03T07:50:14;21.40;90.10
44773;DHT22;30492;52.088;5.122;2022-09-03T07:53:20;21.60;89.30
44773;DHT22;30492;52.088;5.122;2022-09-03T07:56:25;21.70;89.70
44773;DHT22;30492;52.088;5.122;2022-09-03T07:59:32;21.90;89.60
44773;DHT22;30492;52.088;5.122;2022-09-03T08:02:37;22.10;89.20
44773;DHT22;30492;52.088;5.122;2022-09-03T08:05:42;22.30;88.30
44773;DHT22;30492;52.088;5.122;2022-09-03T08:08:48;22.40;87.80
44773;DHT22;30492;52.088;5.122;2022-09-03T08:11:53;22.40;87.50
44773;DHT22;30492;52.088;5.122;2022-09-03T08:14:59;22.50;87.40
44773;DHT22;30492;52.088;5.122;2022-09-03T08:18:05;22.70;87.80
44773;DHT22;30492;52.088;5.122;2022-09-03T08:21:11;23.00;87.60
44773;DHT22;30492;52.088;5.122;2022-09-03T08:24:17;23.10;85.70
44773;DHT22;30492;52.088;5.122;2022-09-03T08:27:23;23.10;85.80
44773;DHT22;30492;52.088;5.122;2022-09-03T08:30:30;23.20;85.80
44773;DHT22;30492;52.088;5.122;2022-09-03T08:33:35;23.20;86.00
44773;DHT22;30492;52.088;5.122;2022-09-03T08:36:46;23.20;85.30
44773;DHT22;30492;52.088;5.122;2022-09-03T08:39:51;23.20;85.90
44773;DHT22;30492;52.088;5.122;2022-09-03T08:43:05;23.20;85.80
44773;DHT22;30492;52.088;5.122;2022-09-03T08:46:13;23.30;85.10
44773;DHT22;30492;52.088;5.122;2022-09-03T08:49:24;23.40;85.50
44773;DHT22;30492;52.088;5.122;2022-09-03T08:52:33;23.40;85.60
44773;DHT22;30492;52.088;5.122;2022-09-03T08:55:46;23.60;85.50
44773;DHT22;30492;52.088;5.122;2022-09-03T08:58:54;23.80;85.10
44773;DHT22;30492;52.088;5.122;2022-09-03T09:02:12;24.00;84.80
44773;DHT22;30492;52.088;5.122;2022-09-03T09:05:30;24.10;84.90
44773;DHT22;30492;52.088;5.122;2022-09-03T09:08:43;24.20;84.00
44773;DHT22;30492;52.088;5.122;2022-09-03T09:11:59;24.30;84.00
44773;DHT22;30492;52.088;5.122;2022-09-03T09:15:12;24.50;83.10
44773;DHT22;30492;52.088;5.122;2022-09-03T09:18:26;24.70;83.50
44773;DHT22;30492;52.088;5.122;2022-09-03T09:21:37;24.80;83.00
44773;DHT22;30492;52.088;5.122;2022-09-03T09:24:50;25.00;82.30
44773;DHT22;30492;52.088;5.122;2022-09-03T09:28:01;25.20;82.70
44773;DHT22;30492;52.088;5.122;2022-09-03T09:31:09;25.40;81.70
44773;DHT22;30492;52.088;5.122;2022-09-03T09:34:19;25.50;80.80
44773;DHT22;30492;52.088;5.122;2022-09-03T09:37:24;25.60;81.20
44773;DHT22;30492;52.088;5.122;2022-09-03T09:40:32;25.70;81.40
44773;DHT22;30492;52.088;5.122;2022-09-03T09:43:38;25.70;80.80
44773;DHT22;30492;52.088;5.122;2022-09-03T09:46:45;25.80;80.70
44773;DHT22;30492;52.088;5.122;2022-09-03T09:49:54;25.80;80.80
44773;DHT22;30492;52.088;5.122;2022-09-03T09:53:01;25.70;81.60
44773;DHT22;30492;52.088;5.122;2022-09-03T09:56:08;26.00;81.50
44773;DHT22;30492;52.088;5.122;2022-09-03T09:59:13;26.20;81.10
44773;DHT22;30492;52.088;5.122;2022-09-03T10:02:22;26.30;80.50
44773;DHT22;30492;52.088;5.122;2022-09-03T10:05:32;26.40;80.50
44773;DHT22;30492;52.088;5.122;2022-09-03T10:08:39;26.60;80.60
44773;DHT22;30492;52.088;5.122;2022-09-03T10:11:48;26.80;80.00
44773;DHT22;30492;52.088;5.122;2022-09-03T10:14:57;26.90;80.40
44773;DHT22;30492;52.088;5.122;2022-09-03T10:18:10;27.00;79.50
44773;DHT22;30492;52.088;5.122;2022-09-03T10:21:26;27.10;79.80
44773;DHT22;30492;52.088;5.122;2022-09-03T10:24:42;27.30;79.50
44773;DHT22;30492;52.088;5.122;2022-09-03T10:27:51;27.50;78.60
44773;DHT22;30492;52.088;5.122;2022-09-03T10:31:02;27.50;78.10
44773;DHT22;30492;52.088;5.122;2022-09-03T10:34:19;27.50;78.50
44773;DHT22;30492;52.088;5.122;2022-09-03T10:37:34;27.70;78.80
44773;DHT22;30492;52.088;5.122;2022-09-03T10:40:49;27.80;77.60
44773;DHT22;30492;52.088;5.122;2022-09-03T10:47:36;28.30;77.50
44773;DHT22;30492;52.088;5.122;2022-09-03T10:50:47;28.30;76.30
44773;DHT22;30492;52.088;5.122;2022-09-03T10:54:15;28.40;77.00
44773;DHT22;30492;52.088;5.122;2022-09-03T10:57:31;28.60;76.30
44773;DHT22;30492;52.088;5.122;2022-09-03T11:00:45;28.80;74.60
44773;DHT22;30492;52.088;5.122;2022-09-03T11:04:09;29.00;74.90
44773;DHT22;30492;52.088;5.122;2022-09-03T11:07:21;29.10;74.60
44773;DHT22;30492;52.088;5.122;2022-09-03T11:10:32;29.30;74.30
44773;DHT22;30492;52.088;5.122;2022-09-03T11:13:38;29.40;73.00
44773;DHT22;30492;52.088;5.122;2022-09-03T11:16:49;29.50;73.90
44773;DHT22;30492;52.088;5.122;2022-09-03T11:20:11;29.60;73.50
44773;DHT22;30492;52.088;5.122;2022-09-03T11:23:19;29.60;73.60
44773;DHT22;30492;52.088;5.122;2022-09-03T11:26:27;29.70;72.90
44773;DHT22;30492;52.088;5.122;2022-09-03T11:29:36;29.80;73.30
44773;DHT22;30492;52.088;5.122;2022-09-03T11:32:48;29.80;71.90
44773;DHT22;30492;52.088;5.122;2022-09-03T11:35:56;29.80;72.40
44773;DHT22;30492;52.088;5.122;2022-09-03T11:39:11;29.70;71.20
44773;DHT22;30492;52.088;5.122;2022-09-03T11:42:28;29.50;71.50
44773;DHT22;30492;52.088;5.122;2022-09-03T11:45:36;29.50;72.00
44773;DHT22;30492;52.088;5.122;2022-09-03T11:48:43;29.10;71.30
44773;DHT22;30492;52.088;5.122;2022-09-03T11:51:57;29.20;71.70
44773;DHT22;30492;52.088;5.122;2022-09-03T11:55:03;29.30;71.00
44773;DHT22;30492;52.088;5.122;2022-09-03T11:58:19;29.40;70.70
44773;DHT22;30492;52.088;5.122;2022-09-03T12:01:26;29.00;71.20
44773;DHT22;30492;52.088;5.122;2022-09-03T12:04:38;28.90;72.70
44773;DHT22;30492;52.088;5.122;2022-09-03T12:07:59;29.00;71.40
44773;DHT22;30492;52.088;5.122;2022-09-03T12:11:19;29.10;72.20
44773;DHT22;30492;52.088;5.122;2022-09-03T12:14:35;29.30;71.90
44773;DHT22;30492;52.088;5.122;2022-09-03T12:17:51;29.40;71.60
44773;DHT22;30492;52.088;5.122;2022-09-03T12:21:17;29.20;70.90
44773;DHT22;30492;52.088;5.122;2022-09-03T12:24:25;29.20;71.30
44773;DHT22;30492;52.088;5.122;2022-09-03T12:27:39;29.50;71.60
44773;DHT22;30492;52.088;5.122;2022-09-03T12:30:47;29.60;69.90
44773;DHT22;30492;52.088;5.122;2022-09-03T12:33:58;29.60;70.00
44773;DHT22;30492;52.088;5.122;2022-09-03T12:37:17;29.50;69.90
44773;DHT22;30492;52.088;5.122;2022-09-03T12:40:25;29.60;70.00
44773;DHT22;30492;52.088;5.122;2022-09-03T12:43:31;29.60;70.20
44773;DHT22;30492;52.088;5.122;2022-09-03T12:46:37;29.50;69.50
44773;DHT22;30492;52.088;5.122;2022-09-03T12:49:43;29.50;69.60
44773;DHT22;30492;52.088;5.122;2022-09-03T12:52:51;29.60;69.60
44773;DHT22;30492;52.088;5.122;2022-09-03T12:55:57;29.70;70.10
44773;DHT22;30492;52.088;5.122;2022-09-03T12:59:07;29.90;70.80
44773;DHT22;30492;52.088;5.122;2022-09-03T13:02:21;30.00;69.70
44773;DHT22;30492;52.088;5.122;2022-09-03T13:05:31;30.00;70.00
44773;DHT22;30492;52.088;5.122;2022-09-03T13:08:49;30.20;70.10
44773;DHT22;30492;52.088;5.122;2022-09-03T13:11:56;29.90;69.70
44773;DHT22;30492;52.088;5.122;2022-09-03T13:15:08;29.90;69.30
44773;DHT22;30492;52.088;5.122;2022-09-03T13:18:23;29.70;69.30
44773;DHT22;30492;52.088;5.122;2022-09-03T13:21:40;30.00;70.50
44773;DHT22;30492;52.088;5.122;2022-09-03T13:25:07;30.00;69.00
44773;DHT22;30492;52.088;5.122;2022-09-03T13:28:23;30.10;68.50
44773;DHT22;30492;52.088;5.122;2022-09-03T13:31:35;30.10;68.90
44773;DHT22;30492;52.088;5.122;2022-09-03T13:34:49;30.10;69.40
44773;DHT22;30492;52.088;5.122;2022-09-03T13:37:59;30.30;68.50
44773;DHT22;30492;52.088;5.122;2022-09-03T13:41:12;30.40;68.80
44773;DHT22;30492;52.088;5.122;2022-09-03T13:44:35;30.50;67.50
44773;DHT22;30492;52.088;5.122;2022-09-03T13:47:44;30.40;67.10
44773;DHT22;30492;52.088;5.122;2022-09-03T13:51:10;30.30;67.00
44773;DHT22;30492;52.088;5.122;2022-09-03T13:54:21;30.20;68.20
44773;DHT22;30492;52.088;5.122;2022-09-03T13:57:33;30.20;68.60
44773;DHT22;30492;52.088;5.122;2022-09-03T14:00:42;30.30;69.10
44773;DHT22;30492;52.088;5.122;2022-09-03T14:03:49;30.50;69.40
44773;DHT22;30492;52.088;5.122;2022-09-03T14:07:00;30.60;67.10
44773;DHT22;30492;52.088;5.122;2022-09-03T14:10:18;30.70;67.80
44773;DHT22;30492;52.088;5.122;2022-09-03T14:13:36;30.80;66.80
44773;DHT22;30492;52.088;5.122;2022-09-03T14:16:52;30.80;65.00
44773;DHT22;30492;52.088;5.122;2022-09-03T14:20:03;30.90;66.80
44773;DHT22;30492;52.088;5.122;2022-09-03T14:26:49;30.90;64.60
44773;DHT22;30492;52.088;5.122;2022-09-03T14:29:58;30.60;65.10
44773;DHT22;30492;52.088;5.122;2022-09-03T14:33:11;30.60;66.10
44773;DHT22;30492;52.088;5.122;2022-09-03T14:36:25;30.50;64.60
44773;DHT22;30492;52.088;5.122;2022-09-03T14:39:43;30.40;63.30
44773;DHT22;30492;52.088;5.122;2022-09-03T14:43:04;30.50;64.00
44773;DHT22;30492;52.088;5.122;2022-09-03T14:46:39;30.40;63.70
44773;DHT22;30492;52.088;5.122;2022-09-03T14:50:00;30.40;64.20
44773;DHT22;30492;52.088;5.122;2022-09-03T14:53:23;30.40;65.40
44773;DHT22;30492;52.088;5.122;2022-09-03T14:56:42;30.40;65.80
44773;DHT22;30492;52.088;5.122;2022-09-03T15:00:02;30.40;66.40
44773;DHT22;30492;52.088;5.122;2022-09-03T15:03:42;30.40;66.20
44773;DHT22;30492;52.088;5.122;2022-09-03T15:07:07;30.30;65.10
44773;DHT22;30492;52.088;5.122;2022-09-03T15:10:23;30.20;65.10
44773;DHT22;30492;52.088;5.122;2022-09-03T15:13:34;29.80;65.10
44773;DHT22;30492;52.088;5.122;2022-09-03T15:16:48;29.80;65.60
44773;DHT22;30492;52.088;5.122;2022-09-03T15:23:30;29.80;65.20
44773;DHT22;30492;52.088;5.122;2022-09-03T15:26:58;29.80;66.90
44773;DHT22;30492;52.088;5.122;2022-09-03T15:30:09;29.60;64.80
44773;DHT22;30492;52.088;5.122;2022-09-03T15:33:22;29.20;65.90
44773;DHT22;30492;52.088;5.122;2022-09-03T15:36:36;29.00;67.10
44773;DHT22;30492;52.088;5.122;2022-09-03T15:39:44;28.70;67.10
44773;DHT22;30492;52.088;5.122;2022-09-03T15:42:56;28.80;67.90
44773;DHT22;30492;52.088;5.122;2022-09-03T15:46:09;28.80;69.00
44773;DHT22;30492;52.088;5.122;2022-09-03T15:49:24;28.70;67.00
44773;DHT22;30492;52.088;5.122;2022-09-03T15:52:33;28.70;67.80
44773;DHT22;30492;52.088;5.122;2022-09-03T15:55:42;28.60;68.50
44773;DHT22;30492;52.088;5.122;2022-09-03T15:58:54;28.60;66.80
44773;DHT22;30492;52.088;5.122;2022-09-03T16:02:06;28.60;69.20
44773;DHT22;30492;52.088;5.122;2022-09-03T16:05:17;28.50;68.10
44773;DHT22;30492;52.088;5.122;2022-09-03T16:08:28;28.50;69.70
44773;DHT22;30492;52.088;5.122;2022-09-03T16:11:44;28.50;69.50
44773;DHT22;30492;52.088;5.122;2022-09-03T16:14:57;28.40;68.20
44773;DHT22;30492;52.088;5.122;2022-09-03T16:18:10;28.40;69.00
44773;DHT22;30492;52.088;5.122;2022-09-03T16:21:23;28.20;68.60
44773;DHT22;30492;52.088;5.122;2022-09-03T16:24:36;28.20;69.80
44773;DHT22;30492;52.088;5.122;2022-09-03T16:27:51;28.20;70.20
44773;DHT22;30492;52.088;5.122;2022-09-03T16:31:10;28.30;70.90
44773;DHT22;30492;52.088;5.122;2022-09-03T16:34:25;28.20;70.50
44773;DHT22;30492;52.088;5.122;2022-09-03T16:37:42;28.10;69.10
44773;DHT22;30492;52.088;5.122;2022-09-03T16:40:55;27.90;70.20
44773;DHT22;30492;52.088;5.122;2022-09-03T16:44:07;27.80;69.90
44773;DHT22;30492;52.088;5.122;2022-09-03T16:47:24;27.80;71.00
44773;DHT22;30492;52.088;5.122;2022-09-03T16:50:44;27.80;70.90
44773;DHT22;30492;52.088;5.122;2022-09-03T16:53:55;27.70;71.60
44773;DHT22;30492;52.088;5.122;2022-09-03T16:57:18;27.70;71.10
44773;DHT22;30492;52.088;5.122;2022-09-03T17:00:39;27.60;72.80
44773;DHT22;30492;52.088;5.122;2022-09-03T17:04:08;27.60;72.50
44773;DHT22;30492;52.088;5.122;2022-09-03T17:07:37;27.60;72.30
44773;DHT22;30492;52.088;5.122;2022-09-03T17:10:48;27.60;72.30
44773;DHT22;30492;52.088;5.122;2022-09-03T17:14:04;27.50;72.80
44773;DHT22;30492;52.088;5.122;2022-09-03T17:17:25;27.50;72.40
44773;DHT22;30492;52.088;5.122;2022-09-03T17:20:45;27.40;72.90
44773;DHT22;30492;52.088;5.122;2022-09-03T17:27:45;27.30;73.70
44773;DHT22;30492;52.088;5.122;2022-09-03T17:30:56;27.20;73.10
44773;DHT22;30492;52.088;5.122;2022-09-03T17:34:05;27.20;71.70
44773;DHT22;30492;52.088;5.122;2022-09-03T17:37:18;27.10;72.90
44773;DHT22;30492;52.088;5.122;2022-09-03T17:40:34;27.00;73.70
44773;DHT22;30492;52.088;5.122;2022-09-03T17:43:47;27.00;72.80
44773;DHT22;30492;52.088;5.122;2022-09-03T17:47:03;27.00;73.70
44773;DHT22;30492;52.088;5.122;2022-09-03T17:50:17;27.00;75.50
44773;DHT22;30492;52.088;5.122;2022-09-03T17:53:24;27.00;75.10
44773;DHT22;30492;52.088;5.122;2022-09-03T17:56:44;27.00;75.20
44773;DHT22;30492;52.088;5.122;2022-09-03T18:00:00;27.00;76.00
44773;DHT22;30492;52.088;5.122;2022-09-03T18:03:10;27.00;76.30
44773;DHT22;30492;52.088;5.122;2022-09-03T18:06:25;27.00;76.60
44773;DHT22;30492;52.088;5.122;2022-09-03T18:09:34;27.00;76.60
44773;DHT22;30492;52.088;5.122;2022-09-03T18:12:47;26.90;76.70
44773;DHT22;30492;52.088;5.122;2022-09-03T18:15:59;27.00;77.10
44773;DHT22;30492;52.088;5.122;2022-09-03T18:19:16;26.90;77.00
44773;DHT22;30492;52.088;5.122;2022-09-03T18:22:37;26.90;76.90
44773;DHT22;30492;52.088;5.122;2022-09-03T18:26:05;26.90;77.80
44773;DHT22;30492;52.088;5.122;2022-09-03T18:29:34;26.80;76.90
44773;DHT22;30492;52.088;5.122;2022-09-03T18:32:59;26.80;77.10
44773;DHT22;30492;52.088;5.122;2022-09-03T18:36:22;26.80;77.40
44773;DHT22;30492;52.088;5.122;2022-09-03T18:39:44;26.70;77.30
44773;DHT22;30492;52.088;5.122;2022-09-03T18:43:13;26.70;77.40
44773;DHT22;30492;52.088;5.122;2022-09-03T18:46:48;26.60;77.80
44773;DHT22;30492;52.088;5.122;2022-09-03T18:50:21;26.60;78.10
44773;DHT22;30492;52.088;5.122;2022-09-03T18:53:56;26.50;78.40
44773;DHT22;30492;52.088;5.122;2022-09-03T18:57:21;26.50;78.90
44773;DHT22;30492;52.088;5.122;2022-09-03T19:00:52;26.40;79.20
44773;DHT22;30492;52.088;5.122;2022-09-03T19:04:29;26.40;79.40
44773;DHT22;30492;52.088;5.122;2022-09-03T19:07:59;26.30;79.40
44773;DHT22;30492;52.088;5.122;2022-09-03T19:11:28;26.30;79.60
44773;DHT22;30492;52.088;5.122;2022-09-03T19:14:57;26.30;79.80
44773;DHT22;30492;52.088;5.122;2022-09-03T19:18:24;26.20;79.90
44773;DHT22;30492;52.088;5.122;2022-09-03T19:21:53;26.20;80.10
44773;DHT22;30492;52.088;5.122;2022-09-03T19:25:17;26.20;80.30
44773;DHT22;30492;52.088;5.122;2022-09-03T19:28:42;26.20;80.50
44773;DHT22;30492;52.088;5.122;2022-09-03T19:32:12;26.20;80.70
44773;DHT22;30492;52.088;5.122;2022-09-03T19:35:44;26.10;80.90
44773;DHT22;30492;52.088;5.122;2022-09-03T19:39:21;26.00;81.10
44773;DHT22;30492;52.088;5.122;2022-09-03T19:42:53;26.00;81.40
44773;DHT22;30492;52.088;5.122;2022-09-03T19:46:27;25.90;81.50
44773;DHT22;30492;52.088;5.122;2022-09-03T19:50:03;25.90;81.80
44773;DHT22;30492;52.088;5.122;2022-09-03T19:53:33;25.80;82.00
44773;DHT22;30492;52.088;5.122;2022-09-03T19:56:57;25.80;82.20
44773;DHT22;30492;52.088;5.122;2022-09-03T20:00:19;25.70;82.30
44773;DHT22;30492;52.088;5.122;2022-09-03T20:03:42;25.70;82.40
44773;DHT22;30492;52.088;5.122;2022-09-03T20:07:07;25.70;82.60
44773;DHT22;30492;52.088;5.122;2022-09-03T20:10:31;25.60;82.80
44773;DHT22;30492;52.088;5.122;2022-09-03T20:13:39;25.60;83.20
44773;DHT22;30492;52.088;5.122;2022-09-03T20:17:12;25.50;83.40
44773;DHT22;30492;52.088;5.122;2022-09-03T20:20:26;25.50;83.70
44773;DHT22;30492;52.088;5.122;2022-09-03T20:23:37;25.40;83.80
44773;DHT22;30492;52.088;5.122;2022-09-03T20:26:50;25.40;84.00
44773;DHT22;30492;52.088;5.122;2022-09-03T20:30:03;25.40;84.20